createdAt,value
2023-04-21T05:48:01.660Z,4.25
2023-04-21T05:49:26.202Z,4.27
2023-04-21T05:50:47.661Z,4.60
2023-04-21T05:52:11.576Z,4.84
2023-04-21T05:53:34.226Z,4.54
2023-04-21T05:54:56.528Z,4.19
2023-04-21T05:57:42.849Z,4.25
2023-04-21T05:59:05.750Z,4.34
2023-04-21T06:00:28.054Z,4.24
2023-04-21T06:01:51.080Z,4.12
2023-04-21T06:03:12.655Z,4.08
2023-04-21T06:04:35.763Z,4.34
2023-04-21T06:05:59.043Z,4.26
2023-04-21T06:07:21.669Z,3.76
2023-04-21T06:08:46.207Z,4.14
2023-04-21T06:10:22.286Z,4.18
2023-04-21T06:11:53.914Z,3.93
2023-04-21T06:15:16.064Z,3.58
2023-04-21T06:20:19.528Z,3.84
2023-04-21T06:22:03.410Z,3.96
2023-04-21T06:23:26.483Z,4.34
2023-04-21T06:26:34.809Z,3.62
2023-04-21T06:27:56.990Z,3.96
2023-04-21T06:31:06.210Z,4.51
2023-04-21T06:39:33.006Z,3.87
2023-04-21T06:40:54.948Z,4.17
2023-04-21T06:42:20.380Z,3.46
2023-04-21T06:44:06.504Z,4.02
2023-04-21T06:45:38.792Z,5.27
2023-04-21T06:47:08.642Z,4.83
2023-04-21T06:48:35.837Z,5.03
2023-04-21T06:49:57.737Z,4.26
2023-04-21T06:51:23.320Z,5.13
2023-04-21T06:52:49.524Z,4.59
2023-04-21T06:54:18.347Z,4.25
2023-04-21T06:55:57.928Z,4.24
2023-04-21T06:57:30.109Z,4.56
2023-04-21T06:58:53.453Z,5.04
2023-04-21T07:00:19.703Z,4.88
2023-04-21T07:01:59.920Z,4.76
2023-04-21T07:03:39.674Z,4.61
2023-04-21T07:05:07.821Z,5.00
2023-04-21T07:06:31.839Z,4.82
2023-04-21T07:08:14.682Z,5.36
2023-04-21T07:09:41.336Z,4.18
2023-04-21T07:11:09.034Z,5.51
2023-04-21T07:14:19.162Z,6.03
2023-04-21T07:15:45.440Z,5.10
2023-04-21T07:17:08.884Z,5.78
2023-04-21T07:18:31.061Z,4.32
2023-04-21T07:19:55.942Z,5.17
2023-04-21T07:21:20.375Z,5.52
2023-04-21T07:22:43.582Z,3.98
2023-04-21T07:24:05.908Z,3.79
2023-04-21T07:25:28.366Z,3.84
2023-04-21T07:26:54.583Z,4.28
2023-04-21T07:28:22.321Z,6.39
2023-04-21T07:41:48.948Z,4.42
2023-04-21T07:43:10.761Z,3.83
2023-04-21T08:09:51.676Z,4.64
2023-04-21T08:12:50.516Z,5.66
2023-04-21T08:14:13.603Z,10.24
2023-04-21T08:15:35.825Z,8.39
2023-04-21T08:16:58.782Z,11.30
2023-04-21T08:19:45.878Z,7.94
2023-04-21T08:21:11.606Z,4.58
2023-04-21T08:22:33.774Z,4.85
2023-04-21T08:23:59.630Z,4.00
2023-04-21T08:25:34.952Z,3.87
2023-04-21T08:26:59.460Z,3.90
2023-04-21T08:30:15.098Z,4.72
2023-04-21T08:31:36.660Z,4.01
2023-04-21T08:34:02.026Z,4.11
2023-04-21T08:35:19.193Z,4.57
2023-04-21T08:49:07.402Z,4.95
2023-04-21T08:52:12.961Z,4.16
2023-04-21T08:55:04.137Z,4.11
2023-04-21T08:56:30.624Z,3.66
2023-04-21T08:57:53.450Z,4.59
2023-04-21T08:59:16.457Z,6.88
2023-04-21T09:00:45.122Z,5.52
2023-04-21T09:02:16.367Z,4.48
2023-04-21T09:03:39.416Z,4.27
2023-04-21T09:16:08.715Z,4.47
2023-04-21T09:29:39.894Z,4.04
2023-04-21T09:32:24.034Z,5.37
2023-04-21T09:33:58.429Z,4.02
2023-04-21T09:35:38.475Z,4.00
2023-04-21T09:37:10.070Z,5.01
2023-04-21T09:38:34.463Z,3.93
2023-04-21T09:40:05.081Z,4.58
2023-04-21T09:41:26.545Z,5.02
2023-04-21T09:42:49.804Z,4.39
2023-04-21T09:44:14.222Z,5.03
2023-04-21T09:45:40.282Z,4.84
2023-04-21T09:47:01.198Z,4.24
2023-04-21T09:48:26.814Z,4.76
2023-04-21T09:52:34.845Z,5.77
2023-04-21T09:54:03.930Z,4.95
2023-04-21T09:55:30.871Z,4.76
2023-04-21T09:56:57.709Z,4.16
2023-04-21T09:58:24.103Z,3.95
2023-04-21T09:59:48.663Z,4.61
2023-04-21T10:01:14.497Z,4.16
2023-04-21T10:54:53.549Z,3.89
2023-04-21T10:57:36.382Z,3.13
2023-04-21T10:59:00.172Z,3.89
2023-04-21T11:00:23.034Z,3.64
2023-04-21T11:01:45.842Z,4.56
2023-04-21T11:03:08.614Z,3.60
2023-04-21T11:04:34.518Z,3.45
2023-04-21T11:05:56.004Z,3.21
2023-04-21T11:07:24.462Z,3.25
2023-04-21T11:08:57.511Z,2.92
2023-04-21T11:10:19.867Z,3.63
2023-04-21T11:11:42.303Z,4.24
2023-04-21T11:13:03.730Z,4.31
2023-04-21T11:14:26.432Z,3.14
2023-04-21T11:16:05.457Z,3.47
2023-04-21T11:17:29.280Z,3.67
2023-04-21T11:22:06.906Z,3.19
2023-04-21T11:23:54.233Z,2.98
2023-04-21T11:25:19.022Z,3.47
2023-04-21T11:26:42.027Z,3.70
2023-04-21T11:28:04.160Z,3.27
2023-04-21T11:29:26.952Z,3.74
2023-04-21T11:34:24.461Z,3.83
2023-04-21T11:36:04.705Z,4.05
2023-04-21T11:37:43.194Z,3.65
2023-04-21T11:39:21.362Z,3.26
2023-04-21T11:57:14.281Z,3.38
2023-04-21T12:11:35.430Z,3.28
2023-04-21T12:13:03.041Z,3.64
2023-04-21T12:25:29.505Z,3.40
2023-04-21T12:30:49.775Z,3.42
2023-04-21T13:00:36.823Z,3.13
2023-04-21T16:33:39.007Z,5.96
2023-04-21T16:35:19.033Z,5.57
2023-04-21T18:20:41.713Z,4.07
2023-04-21T18:23:56.191Z,5.46
2023-04-21T18:25:27.254Z,5.31
2023-04-21T18:26:52.732Z,5.54
2023-04-21T18:28:24.326Z,6.33
2023-04-21T18:31:39.894Z,5.42
2023-04-21T18:34:54.677Z,6.03
2023-04-21T18:36:26.188Z,6.09
2023-04-21T18:39:32.849Z,5.83
2023-04-21T18:41:04.585Z,6.20
2023-04-21T18:44:17.199Z,6.28
2023-04-21T18:45:43.039Z,6.32
2023-04-21T18:48:49.638Z,7.70
2023-04-21T18:50:13.945Z,7.20
2023-04-21T18:51:40.124Z,7.29
2023-04-21T18:53:02.186Z,6.63
2023-04-21T18:54:25.982Z,8.06
2023-04-21T18:55:52.359Z,7.73
2023-04-21T18:57:30.878Z,7.57
2023-04-21T18:59:14.947Z,7.16
2023-04-21T19:02:36.373Z,7.32
2023-04-21T19:04:08.988Z,7.43
2023-04-21T19:07:23.560Z,7.46
2023-04-21T19:08:46.744Z,7.74
2023-04-21T19:10:11.493Z,8.24
2023-04-21T19:11:36.256Z,8.89
2023-04-21T19:13:01.728Z,8.44
2023-04-21T19:14:46.452Z,9.41
2023-04-21T19:16:02.942Z,11.07
2023-04-21T19:17:34.122Z,16.75
2023-04-21T19:18:59.031Z,15.68
2023-04-21T19:20:31.122Z,15.00
2023-04-21T19:21:53.653Z,14.41
2023-04-21T19:23:17.307Z,14.69
2023-04-21T19:24:41.494Z,13.43
2023-04-21T19:26:04.757Z,12.29
2023-04-21T19:27:43.123Z,12.63
2023-04-21T19:29:08.873Z,12.54
2023-04-21T19:30:35.932Z,11.46
2023-04-21T19:32:03.262Z,10.43
2023-04-21T19:33:26.090Z,11.97
2023-04-21T19:34:49.496Z,11.22
2023-04-21T19:36:14.073Z,11.02
2023-04-21T19:39:21.888Z,10.35
2023-04-21T19:40:43.971Z,10.50
2023-04-21T19:42:07.432Z,10.38
2023-04-21T19:43:30.113Z,10.57
2023-04-21T19:44:54.166Z,9.69
2023-04-21T19:46:18.563Z,9.97
2023-04-21T19:47:42.060Z,10.18
2023-04-21T19:49:10.972Z,10.45
2023-04-21T19:50:34.380Z,11.07
2023-04-21T19:51:57.494Z,10.88
2023-04-21T19:53:22.930Z,11.96
2023-04-21T19:54:47.519Z,11.86
2023-04-21T19:56:10.786Z,11.36
2023-04-21T19:57:32.527Z,12.02
2023-04-21T19:58:57.309Z,11.32
2023-04-21T20:04:53.552Z,11.67
2023-04-21T20:06:18.121Z,11.57
2023-04-21T20:07:40.816Z,11.62
2023-04-21T20:09:03.303Z,8.09
2023-04-21T20:10:27.104Z,10.01
2023-04-21T20:13:30.844Z,8.34
2023-04-21T20:17:27.092Z,8.37
2023-04-21T20:18:49.321Z,8.47
2023-04-21T20:20:14.424Z,8.47
2023-04-21T20:21:36.932Z,9.73
2023-04-21T20:22:59.044Z,8.71
2023-04-21T20:24:22.386Z,9.30
2023-04-21T20:25:43.855Z,10.29
2023-04-21T20:27:08.534Z,9.78
2023-04-21T20:28:29.423Z,9.54
2023-04-21T20:29:52.263Z,9.40
2023-04-21T20:31:14.518Z,9.22
2023-04-21T20:32:36.864Z,8.67
2023-04-21T20:34:01.978Z,7.99
2023-04-21T20:35:24.322Z,8.46
2023-04-21T20:36:47.108Z,8.22
2023-04-21T20:38:19.980Z,8.54
2023-04-21T20:40:01.157Z,8.16
2023-04-21T20:41:28.288Z,8.54
2023-04-21T20:42:51.220Z,8.52
2023-04-21T20:44:13.688Z,8.71
2023-04-21T20:45:37.337Z,7.21
2023-04-21T20:47:02.881Z,7.44
2023-04-21T20:48:25.261Z,7.93
2023-04-21T20:49:48.967Z,8.08
2023-04-21T20:51:11.158Z,7.15
2023-04-21T20:52:41.010Z,6.54
2023-04-21T20:54:05.647Z,6.71
2023-04-21T20:55:28.722Z,6.19
2023-04-21T20:56:50.791Z,6.14
2023-04-21T20:58:22.332Z,5.91
2023-04-21T20:59:51.617Z,6.26
2023-04-21T21:01:14.890Z,6.86
2023-04-21T21:02:43.274Z,6.64
2023-04-21T21:04:05.923Z,6.53
2023-04-21T21:05:32.043Z,6.88
2023-04-21T21:06:54.404Z,7.17
2023-04-21T21:08:18.295Z,7.14
2023-04-21T21:09:41.361Z,6.65
2023-04-21T21:12:27.144Z,7.06
2023-04-21T21:13:49.743Z,8.26
2023-04-21T21:15:12.815Z,8.96
2023-04-21T21:16:37.282Z,8.60
2023-04-21T21:17:59.371Z,8.56
2023-04-21T21:19:21.872Z,7.77
2023-04-21T21:20:43.821Z,8.07
2023-04-21T21:22:06.356Z,8.01
2023-04-21T21:24:51.805Z,7.83
2023-04-21T21:26:13.340Z,7.68
2023-04-21T21:27:34.772Z,7.62
2023-04-21T21:28:58.122Z,7.31
2023-04-21T21:30:19.662Z,6.71
2023-04-21T21:31:41.716Z,7.47
2023-04-21T21:33:03.754Z,6.84
2023-04-21T21:34:27.201Z,6.84
2023-04-21T21:35:49.134Z,6.02
2023-04-21T21:37:11.094Z,6.46
2023-04-21T21:38:35.656Z,6.94
2023-04-21T21:39:57.671Z,6.53
2023-04-21T21:41:21.655Z,6.38
2023-04-21T21:42:46.677Z,6.57
2023-04-21T21:44:08.915Z,6.73
2023-04-21T21:45:30.728Z,6.33
2023-04-21T21:46:52.793Z,6.27
2023-04-21T21:48:15.517Z,5.25
2023-04-21T21:49:38.889Z,6.88
2023-04-21T21:51:02.485Z,6.76
2023-04-21T21:52:24.574Z,6.61
2023-04-21T21:53:46.697Z,8.48
2023-04-21T21:55:12.116Z,8.23
2023-04-21T21:56:34.317Z,7.55
2023-04-21T21:57:56.302Z,7.51
2023-04-21T21:59:18.666Z,6.71
2023-04-21T22:00:41.412Z,6.06
2023-04-21T22:02:03.383Z,9.38
2023-04-21T22:03:25.075Z,10.33
2023-04-21T22:04:47.104Z,9.62
2023-04-21T22:06:11.142Z,8.21
2023-04-21T22:07:33.906Z,6.45
2023-04-21T22:08:55.662Z,8.03
2023-04-21T22:10:19.082Z,7.72
2023-04-21T22:11:41.780Z,6.93
2023-04-21T22:13:04.454Z,6.76
2023-04-21T22:14:27.206Z,4.69
2023-04-21T22:17:11.174Z,6.66
2023-04-21T22:18:33.444Z,6.49
2023-04-21T22:19:55.641Z,6.32
2023-04-21T22:21:18.128Z,5.89
2023-04-21T22:22:39.996Z,6.50
2023-04-21T22:24:01.846Z,6.45
2023-04-21T22:25:23.127Z,6.36
2023-04-21T22:26:45.882Z,6.93
2023-04-21T22:28:09.213Z,6.39
2023-04-21T22:29:30.640Z,7.08
2023-04-21T22:30:53.357Z,6.43
2023-04-21T22:32:16.129Z,6.56
2023-04-21T22:33:38.748Z,7.24
2023-04-21T22:35:01.508Z,6.45
2023-04-21T22:36:23.439Z,6.69
2023-04-21T22:37:45.329Z,4.78
2023-04-21T22:39:06.982Z,6.46
2023-04-21T22:40:28.966Z,5.01
2023-04-21T22:41:51.634Z,6.43
2023-04-21T22:43:13.988Z,7.03
2023-04-21T22:44:36.699Z,7.53
2023-04-21T22:45:59.399Z,6.80
2023-04-21T22:47:22.685Z,6.54
2023-04-21T22:48:44.755Z,6.58
2023-04-21T22:50:08.289Z,6.96
2023-04-21T22:51:29.757Z,6.91
2023-04-21T22:52:52.755Z,7.24
2023-04-21T22:55:37.922Z,6.44
2023-04-21T22:57:00.329Z,7.08
2023-04-21T22:58:22.463Z,7.00
2023-04-21T22:59:44.714Z,7.46
2023-04-21T23:01:06.648Z,7.14
2023-04-21T23:02:28.389Z,6.78
2023-04-21T23:03:50.658Z,6.18
2023-04-21T23:05:13.509Z,7.62
2023-04-21T23:06:35.479Z,7.48
2023-04-21T23:07:57.438Z,6.71
2023-04-21T23:09:21.004Z,7.93
2023-04-21T23:10:42.900Z,7.18
2023-04-21T23:12:05.045Z,6.77
2023-04-21T23:13:26.373Z,7.31
2023-04-21T23:14:48.926Z,7.09
2023-04-21T23:16:11.800Z,7.31
2023-04-21T23:17:34.511Z,6.49
2023-04-21T23:18:56.478Z,7.05
2023-04-21T23:20:19.156Z,6.43
2023-04-21T23:21:41.433Z,6.50
2023-04-21T23:23:03.382Z,6.93
2023-04-21T23:24:25.720Z,6.84
2023-04-21T23:25:49.059Z,7.33
2023-04-21T23:27:11.411Z,7.77
2023-04-21T23:28:33.612Z,6.84
2023-04-21T23:29:55.399Z,7.01
2023-04-21T23:31:17.240Z,7.19
2023-04-21T23:32:38.601Z,6.80
2023-04-21T23:34:04.248Z,6.98
2023-04-21T23:35:26.851Z,6.64
2023-04-21T23:36:49.217Z,5.84
2023-04-21T23:38:12.089Z,6.57
2023-04-21T23:39:34.401Z,6.84
2023-04-21T23:40:58.194Z,6.25
2023-04-21T23:42:20.292Z,6.83
2023-04-21T23:43:43.287Z,5.21
2023-04-21T23:45:08.154Z,6.51
2023-04-21T23:46:29.852Z,6.02
2023-04-21T23:47:52.342Z,6.24
2023-04-21T23:49:14.990Z,6.59
2023-04-21T23:50:38.338Z,6.03
2023-04-21T23:51:59.897Z,6.92
2023-04-21T23:53:21.848Z,6.52
2023-04-21T23:54:45.620Z,7.03
2023-04-21T23:56:09.420Z,8.66
2023-04-21T23:57:31.672Z,9.73
2023-04-21T23:58:53.038Z,8.83
